sensor_id;sensor_type;location;lat;lon;timestamp;temperature;humidity
20045;DHT22;10183;47.808;9.476;2023-01-04T00:00:47;4.90;99.90
20045;DHT22;10183;47.808;9.476;2023-01-04T00:03:13;5.00;99.90
20045;DHT22;10183;47.808;9.476;2023-01-04T00:05:39;5.10;99.90
20045;DHT22;10183;47.808;9.476;2023-01-04T00:08:05;5.10;99.90
20045;DHT22;10183;47.808;9.476;2023-01-04T00:10:32;5.30;99.90
20045;DHT22;10183;47.808;9.476;2023-01-04T00:12:58;5.30;99.90
20045;DHT22;10183;47.808;9.476;2023-01-04T00:15:24;5.20;99.90
20045;DHT22;10183;47.808;9.476;2023-01-04T00:17:50;5.30;99.90
20045;DHT22;10183;47.808;9.476;2023-01-04T00:20:16;5.30;99.90
20045;DHT22;10183;47.808;9.476;2023-01-04T00:22:43;5.30;99.90
20045;DHT22;10183;47.808;9.476;2023-01-04T00:25:09;5.20;99.90
20045;DHT22;10183;47.808;9.476;2023-01-04T00:27:35;5.20;99.90
20045;DHT22;10183;47.808;9.476;2023-01-04T00:30:01;5.20;99.90
20045;DHT22;10183;47.808;9.476;2023-01-04T00:32:28;5.20;99.90
20045;DHT22;10183;47.808;9.476;2023-01-04T00:34:56;5.20;99.90
20045;DHT22;10183;47.808;9.476;2023-01-04T00:37:22;5.10;99.90
20045;DHT22;10183;47.808;9.476;2023-01-04T00:39:48;5.10;99.90
20045;DHT22;10183;47.808;9.476;2023-01-04T00:42:15;5.10;99.90
20045;DHT22;10183;47.808;9.476;2023-01-04T00:44:41;5.10;99.90
20045;DHT22;10183;47.808;9.476;2023-01-04T00:47:09;5.10;99.90
20045;DHT22;10183;47.808;9.476;2023-01-04T00:49:35;5.10;99.90
20045;DHT22;10183;47.808;9.476;2023-01-04T00:52:02;5.10;99.90
20045;DHT22;10183;47.808;9.476;2023-01-04T00:54:28;5.10;99.90
20045;DHT22;10183;47.808;9.476;2023-01-04T00:56:54;5.10;99.90
20045;DHT22;10183;47.808;9.476;2023-01-04T00:59:20;5.00;99.90
20045;DHT22;10183;47.808;9.476;2023-01-04T01:01:48;5.00;99.90
20045;DHT22;10183;47.808;9.476;2023-01-04T01:04:16;5.10;99.90
20045;DHT22;10183;47.808;9.476;2023-01-04T01:06:43;5.10;99.90
20045;DHT22;10183;47.808;9.476;2023-01-04T01:09:09;5.00;99.90
20045;DHT22;10183;47.808;9.476;2023-01-04T01:11:36;5.00;99.90
20045;DHT22;10183;47.808;9.476;2023-01-04T01:14:04;4.90;99.90
20045;DHT22;10183;47.808;9.476;2023-01-04T01:16:31;5.00;99.90
20045;DHT22;10183;47.808;9.476;2023-01-04T01:18:57;5.00;99.90
20045;DHT22;10183;47.808;9.476;2023-01-04T01:21:25;5.00;99.90
20045;DHT22;10183;47.808;9.476;2023-01-04T01:23:53;5.00;99.90
20045;DHT22;10183;47.808;9.476;2023-01-04T01:26:23;5.00;99.90
20045;DHT22;10183;47.808;9.476;2023-01-04T01:28:50;5.00;99.90
20045;DHT22;10183;47.808;9.476;2023-01-04T01:31:23;5.00;99.90
20045;DHT22;10183;47.808;9.476;2023-01-04T01:33:52;5.00;99.90
20045;DHT22;10183;47.808;9.476;2023-01-04T01:36:20;5.00;99.90
20045;DHT22;10183;47.808;9.476;2023-01-04T01:38:47;5.00;99.90
20045;DHT22;10183;47.808;9.476;2023-01-04T01:43:55;5.00;99.90
20045;DHT22;10183;47.808;9.476;2023-01-04T01:46:40;5.10;99.90
20045;DHT22;10183;47.808;9.476;2023-01-04T01:51:40;5.10;99.90
20045;DHT22;10183;47.808;9.476;2023-01-04T01:54:12;5.10;99.90
20045;DHT22;10183;47.808;9.476;2023-01-04T01:56:40;5.00;99.90
20045;DHT22;10183;47.808;9.476;2023-01-04T01:59:08;5.10;99.90
20045;DHT22;10183;47.808;9.476;2023-01-04T02:01:36;5.10;99.90
20045;DHT22;10183;47.808;9.476;2023-01-04T02:04:03;5.10;99.90
20045;DHT22;10183;47.808;9.476;2023-01-04T02:06:38;5.10;99.90
20045;DHT22;10183;47.808;9.476;2023-01-04T02:09:04;5.10;99.90
20045;DHT22;10183;47.808;9.476;2023-01-04T02:11:30;5.10;99.90
20045;DHT22;10183;47.808;9.476;2023-01-04T02:13:58;5.10;99.90
20045;DHT22;10183;47.808;9.476;2023-01-04T02:39:47;5.00;99.90
20045;DHT22;10183;47.808;9.476;2023-01-04T02:42:27;5.00;99.90
20045;DHT22;10183;47.808;9.476;2023-01-04T02:45:20;5.00;99.90
20045;DHT22;10183;47.808;9.476;2023-01-04T02:47:47;4.80;99.90
20045;DHT22;10183;47.808;9.476;2023-01-04T02:50:39;4.80;99.90
20045;DHT22;10183;47.808;9.476;2023-01-04T02:53:10;4.80;99.90
20045;DHT22;10183;47.808;9.476;2023-01-04T03:01:15;4.80;99.90
20045;DHT22;10183;47.808;9.476;2023-01-04T03:04:33;4.80;99.90
20045;DHT22;10183;47.808;9.476;2023-01-04T03:13:25;4.80;99.90
20045;DHT22;10183;47.808;9.476;2023-01-04T03:16:00;4.80;99.90
20045;DHT22;10183;47.808;9.476;2023-01-04T03:18:29;4.70;99.90
20045;DHT22;10183;47.808;9.476;2023-01-04T03:20:58;4.70;99.90
20045;DHT22;10183;47.808;9.476;2023-01-04T03:23:29;4.70;99.90
20045;DHT22;10183;47.808;9.476;2023-01-04T03:26:24;4.70;99.90
20045;DHT22;10183;47.808;9.476;2023-01-04T03:29:34;4.70;99.90
20045;DHT22;10183;47.808;9.476;2023-01-04T03:38:09;4.70;99.90
20045;DHT22;10183;47.808;9.476;2023-01-04T03:41:05;4.70;99.90
20045;DHT22;10183;47.808;9.476;2023-01-04T03:44:13;4.70;99.90
20045;DHT22;10183;47.808;9.476;2023-01-04T03:47:07;4.70;99.90
20045;DHT22;10183;47.808;9.476;2023-01-04T03:50:01;4.70;99.90
20045;DHT22;10183;47.808;9.476;2023-01-04T03:52:30;4.70;99.90
20045;DHT22;10183;47.808;9.476;2023-01-04T03:54:59;4.70;99.90
20045;DHT22;10183;47.808;9.476;2023-01-04T03:57:36;4.60;99.90
20045;DHT22;10183;47.808;9.476;2023-01-04T04:00:10;4.60;99.90
20045;DHT22;10183;47.808;9.476;2023-01-04T04:02:39;4.60;99.90
20045;DHT22;10183;47.808;9.476;2023-01-04T04:05:07;4.70;99.90
20045;DHT22;10183;47.808;9.476;2023-01-04T04:07:51;4.70;99.90
20045;DHT22;10183;47.808;9.476;2023-01-04T04:10:36;4.70;99.90
20045;DHT22;10183;47.808;9.476;2023-01-04T04:13:02;4.70;99.90
20045;DHT22;10183;47.808;9.476;2023-01-04T04:15:28;4.70;99.90
20045;DHT22;10183;47.808;9.476;2023-01-04T04:17:55;4.70;99.90
20045;DHT22;10183;47.808;9.476;2023-01-04T04:20:21;4.70;99.90
20045;DHT22;10183;47.808;9.476;2023-01-04T04:22:47;4.70;99.90
20045;DHT22;10183;47.808;9.476;2023-01-04T04:25:13;4.70;99.90
20045;DHT22;10183;47.808;9.476;2023-01-04T04:27:39;4.70;99.90
20045;DHT22;10183;47.808;9.476;2023-01-04T04:30:05;4.70;99.90
20045;DHT22;10183;47.808;9.476;2023-01-04T04:32:32;4.70;99.90
20045;DHT22;10183;47.808;9.476;2023-01-04T04:34:58;4.80;99.90
20045;DHT22;10183;47.808;9.476;2023-01-04T04:37:24;4.70;99.90
20045;DHT22;10183;47.808;9.476;2023-01-04T04:39:52;4.70;99.90
20045;DHT22;10183;47.808;9.476;2023-01-04T04:42:18;4.70;99.90
20045;DHT22;10183;47.808;9.476;2023-01-04T04:44:44;4.70;99.90
20045;DHT22;10183;47.808;9.476;2023-01-04T04:47:10;4.70;99.90
20045;DHT22;10183;47.808;9.476;2023-01-04T04:49:36;4.70;99.90
20045;DHT22;10183;47.808;9.476;2023-01-04T04:52:02;4.70;99.90
20045;DHT22;10183;47.808;9.476;2023-01-04T04:54:28;4.60;99.90
20045;DHT22;10183;47.808;9.476;2023-01-04T04:56:54;4.60;99.90
20045;DHT22;10183;47.808;9.476;2023-01-04T04:59:21;4.60;99.90
20045;DHT22;10183;47.808;9.476;2023-01-04T05:01:47;4.60;99.90
20045;DHT22;10183;47.808;9.476;2023-01-04T05:04:13;4.70;99.90
20045;DHT22;10183;47.808;9.476;2023-01-04T05:06:42;4.70;99.90
20045;DHT22;10183;47.808;9.476;2023-01-04T05:09:10;4.60;99.90
20045;DHT22;10183;47.808;9.476;2023-01-04T05:11:36;4.60;99.90
20045;DHT22;10183;47.808;9.476;2023-01-04T05:14:21;4.60;99.90
20045;DHT22;10183;47.808;9.476;2023-01-04T05:16:47;4.70;99.90
20045;DHT22;10183;47.808;9.476;2023-01-04T05:19:13;4.70;99.90
20045;DHT22;10183;47.808;9.476;2023-01-04T05:21:39;4.70;99.90
20045;DHT22;10183;47.808;9.476;2023-01-04T05:24:06;4.60;99.90
20045;DHT22;10183;47.808;9.476;2023-01-04T05:26:32;4.70;99.90
20045;DHT22;10183;47.808;9.476;2023-01-04T05:28:58;4.70;99.90
20045;DHT22;10183;47.808;9.476;2023-01-04T05:31:25;4.70;99.90
20045;DHT22;10183;47.808;9.476;2023-01-04T05:33:51;4.70;99.90
20045;DHT22;10183;47.808;9.476;2023-01-04T05:36:17;4.70;99.90
20045;DHT22;10183;47.808;9.476;2023-01-04T05:38:43;4.70;99.90
20045;DHT22;10183;47.808;9.476;2023-01-04T05:41:09;4.60;99.90
20045;DHT22;10183;47.808;9.476;2023-01-04T05:43:54;4.60;99.90
20045;DHT22;10183;47.808;9.476;2023-01-04T05:46:20;4.60;99.90
20045;DHT22;10183;47.808;9.476;2023-01-04T05:48:46;4.60;99.90
20045;DHT22;10183;47.808;9.476;2023-01-04T05:51:13;4.60;99.90
20045;DHT22;10183;47.808;9.476;2023-01-04T05:53:39;4.60;99.90
20045;DHT22;10183;47.808;9.476;2023-01-04T05:56:05;4.60;99.90
20045;DHT22;10183;47.808;9.476;2023-01-04T05:58:31;4.50;99.90
20045;DHT22;10183;47.808;9.476;2023-01-04T06:00:57;4.60;99.90
20045;DHT22;10183;47.808;9.476;2023-01-04T06:03:24;4.50;99.90
20045;DHT22;10183;47.808;9.476;2023-01-04T06:05:50;4.50;99.90
20045;DHT22;10183;47.808;9.476;2023-01-04T06:08:17;4.50;99.90
20045;DHT22;10183;47.808;9.476;2023-01-04T06:10:43;4.60;99.90
20045;DHT22;10183;47.808;9.476;2023-01-04T06:13:09;4.60;99.90
20045;DHT22;10183;47.808;9.476;2023-01-04T06:15:36;4.50;99.90
20045;DHT22;10183;47.808;9.476;2023-01-04T06:18:02;4.50;99.90
20045;DHT22;10183;47.808;9.476;2023-01-04T06:20:28;4.50;99.90
20045;DHT22;10183;47.808;9.476;2023-01-04T06:22:54;4.50;99.90
20045;DHT22;10183;47.808;9.476;2023-01-04T06:25:20;4.50;99.90
20045;DHT22;10183;47.808;9.476;2023-01-04T06:27:46;4.50;99.90
20045;DHT22;10183;47.808;9.476;2023-01-04T06:30:12;4.60;99.90
20045;DHT22;10183;47.808;9.476;2023-01-04T06:32:38;4.50;99.90
20045;DHT22;10183;47.808;9.476;2023-01-04T06:35:05;4.60;99.90
20045;DHT22;10183;47.808;9.476;2023-01-04T06:37:31;4.50;99.90
20045;DHT22;10183;47.808;9.476;2023-01-04T06:39:57;4.60;99.90
20045;DHT22;10183;47.808;9.476;2023-01-04T06:42:23;4.60;99.90
20045;DHT22;10183;47.808;9.476;2023-01-04T06:45:08;4.60;99.90
20045;DHT22;10183;47.808;9.476;2023-01-04T06:47:35;4.60;99.90
20045;DHT22;10183;47.808;9.476;2023-01-04T06:50:01;4.60;99.90
20045;DHT22;10183;47.808;9.476;2023-01-04T06:52:27;4.60;99.90
20045;DHT22;10183;47.808;9.476;2023-01-04T06:54:53;4.60;99.90
20045;DHT22;10183;47.808;9.476;2023-01-04T06:57:19;4.60;99.90
20045;DHT22;10183;47.808;9.476;2023-01-04T06:59:46;4.60;99.90
20045;DHT22;10183;47.808;9.476;2023-01-04T07:02:13;4.60;99.90
20045;DHT22;10183;47.808;9.476;2023-01-04T07:04:40;4.60;99.90
20045;DHT22;10183;47.808;9.476;2023-01-04T07:07:06;4.60;99.90
20045;DHT22;10183;47.808;9.476;2023-01-04T07:09:32;4.70;99.90
20045;DHT22;10183;47.808;9.476;2023-01-04T07:11:59;4.70;99.90
20045;DHT22;10183;47.808;9.476;2023-01-04T07:14:25;4.60;99.90
20045;DHT22;10183;47.808;9.476;2023-01-04T07:16:51;4.60;99.90
20045;DHT22;10183;47.808;9.476;2023-01-04T07:19:17;4.60;99.90
20045;DHT22;10183;47.808;9.476;2023-01-04T07:21:43;4.60;99.90
20045;DHT22;10183;47.808;9.476;2023-01-04T07:24:09;4.50;99.90
20045;DHT22;10183;47.808;9.476;2023-01-04T07:26:35;4.50;99.90
20045;DHT22;10183;47.808;9.476;2023-01-04T07:29:02;4.50;99.90
20045;DHT22;10183;47.808;9.476;2023-01-04T07:31:45;4.60;99.90
20045;DHT22;10183;47.808;9.476;2023-01-04T07:34:12;4.60;99.90
20045;DHT22;10183;47.808;9.476;2023-01-04T07:36:39;4.60;99.90
20045;DHT22;10183;47.808;9.476;2023-01-04T07:39:06;4.60;99.90
20045;DHT22;10183;47.808;9.476;2023-01-04T07:41:35;4.60;99.90
20045;DHT22;10183;47.808;9.476;2023-01-04T07:44:02;4.60;99.90
20045;DHT22;10183;47.808;9.476;2023-01-04T07:46:29;4.60;99.90
20045;DHT22;10183;47.808;9.476;2023-01-04T07:48:55;4.60;99.90
20045;DHT22;10183;47.808;9.476;2023-01-04T07:51:21;4.60;99.90
20045;DHT22;10183;47.808;9.476;2023-01-04T07:53:48;4.60;99.90
20045;DHT22;10183;47.808;9.476;2023-01-04T07:56:14;4.70;99.90
20045;DHT22;10183;47.808;9.476;2023-01-04T07:58:40;4.70;99.90
20045;DHT22;10183;47.808;9.476;2023-01-04T08:01:11;4.70;99.90
20045;DHT22;10183;47.808;9.476;2023-01-04T08:03:38;4.70;99.90
20045;DHT22;10183;47.808;9.476;2023-01-04T08:06:06;4.70;99.90
20045;DHT22;10183;47.808;9.476;2023-01-04T08:08:33;4.70;99.90
20045;DHT22;10183;47.808;9.476;2023-01-04T08:11:08;4.70;99.90
20045;DHT22;10183;47.808;9.476;2023-01-04T08:13:35;4.60;99.90
20045;DHT22;10183;47.808;9.476;2023-01-04T08:16:01;4.60;99.90
20045;DHT22;10183;47.808;9.476;2023-01-04T08:18:27;4.60;99.90
20045;DHT22;10183;47.808;9.476;2023-01-04T08:21:03;4.60;99.90
20045;DHT22;10183;47.808;9.476;2023-01-04T08:23:30;4.70;99.90
20045;DHT22;10183;47.808;9.476;2023-01-04T08:26:01;4.70;99.90
20045;DHT22;10183;47.808;9.476;2023-01-04T08:28:31;4.70;99.90
20045;DHT22;10183;47.808;9.476;2023-01-04T08:30:58;4.70;99.90
20045;DHT22;10183;47.808;9.476;2023-01-04T08:33:24;4.70;99.90
20045;DHT22;10183;47.808;9.476;2023-01-04T08:35:50;4.70;99.90
20045;DHT22;10183;47.808;9.476;2023-01-04T08:38:16;4.70;99.90
20045;DHT22;10183;47.808;9.476;2023-01-04T08:40:43;4.70;99.90
20045;DHT22;10183;47.808;9.476;2023-01-04T08:43:09;4.80;99.90
20045;DHT22;10183;47.808;9.476;2023-01-04T08:45:35;4.80;99.90
20045;DHT22;10183;47.808;9.476;2023-01-04T08:48:01;4.90;99.90
20045;DHT22;10183;47.808;9.476;2023-01-04T08:50:27;4.80;99.90
20045;DHT22;10183;47.808;9.476;2023-01-04T08:52:53;4.90;99.90
20045;DHT22;10183;47.808;9.476;2023-01-04T08:55:19;5.00;99.90
20045;DHT22;10183;47.808;9.476;2023-01-04T08:57:45;5.00;99.90
20045;DHT22;10183;47.808;9.476;2023-01-04T09:00:12;5.00;99.90
20045;DHT22;10183;47.808;9.476;2023-01-04T09:02:39;5.10;99.90
20045;DHT22;10183;47.808;9.476;2023-01-04T09:05:06;5.10;99.90
20045;DHT22;10183;47.808;9.476;2023-01-04T09:07:32;5.10;99.90
20045;DHT22;10183;47.808;9.476;2023-01-04T09:09:58;5.10;99.90
20045;DHT22;10183;47.808;9.476;2023-01-04T09:12:25;5.10;99.90
20045;DHT22;10183;47.808;9.476;2023-01-04T09:14:51;5.20;99.90
20045;DHT22;10183;47.808;9.476;2023-01-04T09:17:18;5.20;99.90
20045;DHT22;10183;47.808;9.476;2023-01-04T09:19:44;5.20;99.90
20045;DHT22;10183;47.808;9.476;2023-01-04T09:22:10;5.20;99.90
20045;DHT22;10183;47.808;9.476;2023-01-04T09:24:36;5.20;99.90
20045;DHT22;10183;47.808;9.476;2023-01-04T09:27:02;5.20;99.90
20045;DHT22;10183;47.808;9.476;2023-01-04T09:29:29;5.30;99.90
20045;DHT22;10183;47.808;9.476;2023-01-04T09:31:55;5.30;99.90
20045;DHT22;10183;47.808;9.476;2023-01-04T09:34:21;5.30;99.90
20045;DHT22;10183;47.808;9.476;2023-01-04T09:36:48;5.20;99.90
20045;DHT22;10183;47.808;9.476;2023-01-04T09:39:15;5.30;99.90
20045;DHT22;10183;47.808;9.476;2023-01-04T09:41:51;5.30;99.90
20045;DHT22;10183;47.808;9.476;2023-01-04T09:47:05;5.30;99.90
20045;DHT22;10183;47.808;9.476;2023-01-04T09:55:08;5.40;99.90
20045;DHT22;10183;47.808;9.476;2023-01-04T09:58:00;5.40;99.90
20045;DHT22;10183;47.808;9.476;2023-01-04T10:00:33;5.50;99.90
20045;DHT22;10183;47.808;9.476;2023-01-04T10:03:14;5.50;99.90
20045;DHT22;10183;47.808;9.476;2023-01-04T10:05:41;5.50;99.90
20045;DHT22;10183;47.808;9.476;2023-01-04T10:08:17;5.50;99.90
20045;DHT22;10183;47.808;9.476;2023-01-04T10:19:03;5.70;99.90
20045;DHT22;10183;47.808;9.476;2023-01-04T10:21:44;5.80;99.90
20045;DHT22;10183;47.808;9.476;2023-01-04T10:24:17;5.80;99.90
20045;DHT22;10183;47.808;9.476;2023-01-04T10:26:49;5.80;99.90
20045;DHT22;10183;47.808;9.476;2023-01-04T10:29:47;5.80;99.90
20045;DHT22;10183;47.808;9.476;2023-01-04T10:32:45;5.90;99.90
20045;DHT22;10183;47.808;9.476;2023-01-04T10:35:23;6.00;99.90
20045;DHT22;10183;47.808;9.476;2023-01-04T10:38:01;6.00;99.90
20045;DHT22;10183;47.808;9.476;2023-01-04T10:40:34;6.00;99.90
20045;DHT22;10183;47.808;9.476;2023-01-04T10:43:27;6.00;99.90
20045;DHT22;10183;47.808;9.476;2023-01-04T10:46:05;6.00;99.90
20045;DHT22;10183;47.808;9.476;2023-01-04T10:48:41;6.00;99.90
20045;DHT22;10183;47.808;9.476;2023-01-04T10:51:09;6.00;99.90
20045;DHT22;10183;47.808;9.476;2023-01-04T10:54:00;6.10;99.90
20045;DHT22;10183;47.808;9.476;2023-01-04T10:56:39;6.10;99.90
20045;DHT22;10183;47.808;9.476;2023-01-04T11:07:12;6.20;99.90
20045;DHT22;10183;47.808;9.476;2023-01-04T11:09:56;6.20;99.90
20045;DHT22;10183;47.808;9.476;2023-01-04T11:12:26;6.20;99.90
20045;DHT22;10183;47.808;9.476;2023-01-04T11:14:53;6.20;99.90
20045;DHT22;10183;47.808;9.476;2023-01-04T11:17:20;6.20;99.90
20045;DHT22;10183;47.808;9.476;2023-01-04T11:19:46;6.30;99.90
20045;DHT22;10183;47.808;9.476;2023-01-04T11:22:24;6.30;99.90
20045;DHT22;10183;47.808;9.476;2023-01-04T11:24:59;6.30;99.90
20045;DHT22;10183;47.808;9.476;2023-01-04T11:27:30;6.30;99.90
20045;DHT22;10183;47.808;9.476;2023-01-04T11:30:11;6.30;99.90
20045;DHT22;10183;47.808;9.476;2023-01-04T11:35:08;6.40;99.90
20045;DHT22;10183;47.808;9.476;2023-01-04T11:37:36;6.30;99.90
20045;DHT22;10183;47.808;9.476;2023-01-04T11:42:43;6.40;99.90
20045;DHT22;10183;47.808;9.476;2023-01-04T11:45:22;6.40;99.90
20045;DHT22;10183;47.808;9.476;2023-01-04T11:47:54;6.40;99.90
20045;DHT22;10183;47.808;9.476;2023-01-04T11:50:44;6.40;99.90
20045;DHT22;10183;47.808;9.476;2023-01-04T11:53:35;6.40;99.90
20045;DHT22;10183;47.808;9.476;2023-01-04T11:56:20;6.40;99.90
20045;DHT22;10183;47.808;9.476;2023-01-04T12:01:41;6.40;99.90
20045;DHT22;10183;47.808;9.476;2023-01-04T12:04:25;6.40;99.90
20045;DHT22;10183;47.808;9.476;2023-01-04T12:09:22;6.40;99.90
20045;DHT22;10183;47.808;9.476;2023-01-04T12:11:56;6.40;99.90
20045;DHT22;10183;47.808;9.476;2023-01-04T12:14:26;6.40;99.90
20045;DHT22;10183;47.808;9.476;2023-01-04T12:17:10;6.40;99.90
20045;DHT22;10183;47.808;9.476;2023-01-04T12:19:42;6.50;99.90
20045;DHT22;10183;47.808;9.476;2023-01-04T12:22:21;6.50;99.90
20045;DHT22;10183;47.808;9.476;2023-01-04T12:24:52;6.50;99.90
20045;DHT22;10183;47.808;9.476;2023-01-04T12:27:19;6.50;99.90
20045;DHT22;10183;47.808;9.476;2023-01-04T12:29:58;6.50;99.90
20045;DHT22;10183;47.808;9.476;2023-01-04T12:34:50;6.60;99.90
20045;DHT22;10183;47.808;9.476;2023-01-04T12:45:41;6.70;99.90
20045;DHT22;10183;47.808;9.476;2023-01-04T12:51:23;6.80;99.90
20045;DHT22;10183;47.808;9.476;2023-01-04T12:59:36;6.90;99.90
20045;DHT22;10183;47.808;9.476;2023-01-04T13:02:27;6.90;99.90
20045;DHT22;10183;47.808;9.476;2023-01-04T13:07:58;6.90;99.90
20045;DHT22;10183;47.808;9.476;2023-01-04T13:10:49;6.90;99.90
20045;DHT22;10183;47.808;9.476;2023-01-04T13:18:56;7.00;99.90
20045;DHT22;10183;47.808;9.476;2023-01-04T13:21:41;7.00;99.90
20045;DHT22;10183;47.808;9.476;2023-01-04T13:24:30;7.00;99.90
20045;DHT22;10183;47.808;9.476;2023-01-04T13:27:04;7.00;99.90
20045;DHT22;10183;47.808;9.476;2023-01-04T13:29:35;7.10;99.90
20045;DHT22;10183;47.808;9.476;2023-01-04T13:34:56;7.10;99.90
20045;DHT22;10183;47.808;9.476;2023-01-04T13:37:36;7.10;99.90
20045;DHT22;10183;47.808;9.476;2023-01-04T13:40:27;7.10;99.90
20045;DHT22;10183;47.808;9.476;2023-01-04T13:43:09;7.20;99.90
20045;DHT22;10183;47.808;9.476;2023-01-04T13:48:44;7.20;99.90
20045;DHT22;10183;47.808;9.476;2023-01-04T13:51:24;7.20;99.90
20045;DHT22;10183;47.808;9.476;2023-01-04T13:53:53;7.20;99.90
20045;DHT22;10183;47.808;9.476;2023-01-04T13:56:22;7.20;99.90
20045;DHT22;10183;47.808;9.476;2023-01-04T13:58:49;7.20;99.90
20045;DHT22;10183;47.808;9.476;2023-01-04T14:01:18;7.20;99.90
20045;DHT22;10183;47.808;9.476;2023-01-04T14:03:47;7.20;99.90
20045;DHT22;10183;47.808;9.476;2023-01-04T14:06:32;7.20;99.90
20045;DHT22;10183;47.808;9.476;2023-01-04T14:09:00;7.20;99.90
20045;DHT22;10183;47.808;9.476;2023-01-04T14:14:44;7.20;99.90
20045;DHT22;10183;47.808;9.476;2023-01-04T14:17:13;7.30;99.90
20045;DHT22;10183;47.808;9.476;2023-01-04T14:24:59;7.30;99.90
20045;DHT22;10183;47.808;9.476;2023-01-04T14:27:34;7.30;99.90
20045;DHT22;10183;47.808;9.476;2023-01-04T14:33:00;7.30;99.90
20045;DHT22;10183;47.808;9.476;2023-01-04T14:35:28;7.30;99.90
20045;DHT22;10183;47.808;9.476;2023-01-04T14:38:01;7.30;99.90
20045;DHT22;10183;47.808;9.476;2023-01-04T14:40:29;7.30;99.90
20045;DHT22;10183;47.808;9.476;2023-01-04T14:42:58;7.30;99.90
20045;DHT22;10183;47.808;9.476;2023-01-04T14:45:25;7.30;99.90
20045;DHT22;10183;47.808;9.476;2023-01-04T14:47:51;7.30;99.90
20045;DHT22;10183;47.808;9.476;2023-01-04T14:50:17;7.30;99.90
20045;DHT22;10183;47.808;9.476;2023-01-04T14:52:51;7.30;99.90
20045;DHT22;10183;47.808;9.476;2023-01-04T14:55:17;7.30;99.90
20045;DHT22;10183;47.808;9.476;2023-01-04T14:57:44;7.30;99.90
20045;DHT22;10183;47.808;9.476;2023-01-04T15:00:14;7.30;99.90
20045;DHT22;10183;47.808;9.476;2023-01-04T15:02:41;7.40;99.90
20045;DHT22;10183;47.808;9.476;2023-01-04T15:05:08;7.30;99.90
20045;DHT22;10183;47.808;9.476;2023-01-04T15:07:38;7.40;99.90
20045;DHT22;10183;47.808;9.476;2023-01-04T15:10:15;7.40;99.90
20045;DHT22;10183;47.808;9.476;2023-01-04T15:12:43;7.30;99.90
20045;DHT22;10183;47.808;9.476;2023-01-04T15:15:10;7.30;99.90
20045;DHT22;10183;47.808;9.476;2023-01-04T15:17:37;7.30;99.90
20045;DHT22;10183;47.808;9.476;2023-01-04T15:20:05;7.30;99.90
20045;DHT22;10183;47.808;9.476;2023-01-04T15:22:32;7.40;99.90
20045;DHT22;10183;47.808;9.476;2023-01-04T15:24:59;7.40;99.90
20045;DHT22;10183;47.808;9.476;2023-01-04T15:27:25;7.40;99.90
20045;DHT22;10183;47.808;9.476;2023-01-04T15:29:51;7.30;99.90
20045;DHT22;10183;47.808;9.476;2023-01-04T15:32:17;7.40;99.90
20045;DHT22;10183;47.808;9.476;2023-01-04T15:34:43;7.30;99.90
20045;DHT22;10183;47.808;9.476;2023-01-04T15:37:10;7.20;99.90
20045;DHT22;10183;47.808;9.476;2023-01-04T15:39:36;7.30;99.90
20045;DHT22;10183;47.808;9.476;2023-01-04T15:42:02;7.30;99.90
20045;DHT22;10183;47.808;9.476;2023-01-04T15:44:47;7.40;99.90
20045;DHT22;10183;47.808;9.476;2023-01-04T15:47:14;7.40;99.90
20045;DHT22;10183;47.808;9.476;2023-01-04T15:49:40;7.30;99.90
20045;DHT22;10183;47.808;9.476;2023-01-04T15:52:06;7.30;99.90
20045;DHT22;10183;47.808;9.476;2023-01-04T15:54:32;7.30;99.90
20045;DHT22;10183;47.808;9.476;2023-01-04T15:56:59;7.30;99.90
20045;DHT22;10183;47.808;9.476;2023-01-04T15:59:25;7.30;99.90
20045;DHT22;10183;47.808;9.476;2023-01-04T16:01:52;7.30;99.90
20045;DHT22;10183;47.808;9.476;2023-01-04T16:04:18;7.30;99.90
20045;DHT22;10183;47.808;9.476;2023-01-04T16:06:44;7.40;99.90
20045;DHT22;10183;47.808;9.476;2023-01-04T16:09:11;7.30;99.90
20045;DHT22;10183;47.808;9.476;2023-01-04T16:11:37;7.40;99.90
20045;DHT22;10183;47.808;9.476;2023-01-04T16:14:23;7.40;99.90
20045;DHT22;10183;47.808;9.476;2023-01-04T16:16:49;7.40;99.90
20045;DHT22;10183;47.808;9.476;2023-01-04T16:19:15;7.30;99.90
20045;DHT22;10183;47.808;9.476;2023-01-04T16:21:41;7.40;99.90
20045;DHT22;10183;47.808;9.476;2023-01-04T16:24:09;7.40;99.90
20045;DHT22;10183;47.808;9.476;2023-01-04T16:26:35;7.30;99.90
20045;DHT22;10183;47.808;9.476;2023-01-04T16:29:02;7.30;99.90
20045;DHT22;10183;47.808;9.476;2023-01-04T16:31:33;7.30;99.90
20045;DHT22;10183;47.808;9.476;2023-01-04T16:33:59;7.40;99.90
20045;DHT22;10183;47.808;9.476;2023-01-04T16:36:26;7.40;99.90
20045;DHT22;10183;47.808;9.476;2023-01-04T16:38:52;7.40;99.90
20045;DHT22;10183;47.808;9.476;2023-01-04T16:41:20;7.40;99.90
20045;DHT22;10183;47.808;9.476;2023-01-04T16:43:48;7.30;99.90
20045;DHT22;10183;47.808;9.476;2023-01-04T16:46:21;7.30;99.90
20045;DHT22;10183;47.808;9.476;2023-01-04T16:48:56;7.30;99.90
20045;DHT22;10183;47.808;9.476;2023-01-04T16:51:25;7.40;99.90
20045;DHT22;10183;47.808;9.476;2023-01-04T16:53:53;7.30;99.90
20045;DHT22;10183;47.808;9.476;2023-01-04T16:56:20;7.30;99.90
20045;DHT22;10183;47.808;9.476;2023-01-04T16:58:47;7.30;99.90
20045;DHT22;10183;47.808;9.476;2023-01-04T17:03:42;7.40;99.90
20045;DHT22;10183;47.808;9.476;2023-01-04T17:06:12;7.40;99.90
20045;DHT22;10183;47.808;9.476;2023-01-04T17:08:40;7.50;99.90
20045;DHT22;10183;47.808;9.476;2023-01-04T17:11:26;7.50;99.90
20045;DHT22;10183;47.808;9.476;2023-01-04T17:13:54;7.40;99.90
20045;DHT22;10183;47.808;9.476;2023-01-04T17:16:22;7.50;99.90
20045;DHT22;10183;47.808;9.476;2023-01-04T17:18:49;7.50;99.90
20045;DHT22;10183;47.808;9.476;2023-01-04T17:21:18;7.40;99.90
20045;DHT22;10183;47.808;9.476;2023-01-04T17:23:47;7.40;99.90
20045;DHT22;10183;47.808;9.476;2023-01-04T17:26:20;7.50;99.90
20045;DHT22;10183;47.808;9.476;2023-01-04T17:28:47;7.50;99.90
20045;DHT22;10183;47.808;9.476;2023-01-04T17:31:19;7.50;99.90
20045;DHT22;10183;47.808;9.476;2023-01-04T17:33:46;7.60;99.90
20045;DHT22;10183;47.808;9.476;2023-01-04T17:36:14;7.50;99.90
20045;DHT22;10183;47.808;9.476;2023-01-04T17:38:43;7.50;99.90
20045;DHT22;10183;47.808;9.476;2023-01-04T17:41:16;7.60;99.90
20045;DHT22;10183;47.808;9.476;2023-01-04T17:43:44;7.60;99.90
20045;DHT22;10183;47.808;9.476;2023-01-04T17:46:16;7.50;99.90
20045;DHT22;10183;47.808;9.476;2023-01-04T17:48:43;7.60;99.90
20045;DHT22;10183;47.808;9.476;2023-01-04T17:51:15;7.50;99.90
20045;DHT22;10183;47.808;9.476;2023-01-04T17:53:43;7.50;99.90
20045;DHT22;10183;47.808;9.476;2023-01-04T17:56:14;7.50;99.90
20045;DHT22;10183;47.808;9.476;2023-01-04T17:58:42;7.50;99.90
20045;DHT22;10183;47.808;9.476;2023-01-04T18:01:20;7.50;99.90
20045;DHT22;10183;47.808;9.476;2023-01-04T18:03:52;7.40;99.90
20045;DHT22;10183;47.808;9.476;2023-01-04T18:06:20;7.40;99.90
20045;DHT22;10183;47.808;9.476;2023-01-04T18:08:47;7.30;99.90
20045;DHT22;10183;47.808;9.476;2023-01-04T18:11:14;7.30;99.90
20045;DHT22;10183;47.808;9.476;2023-01-04T18:13:42;7.30;99.90